createdAt,value
2022-10-09T00:01:32.792Z,3.80
2022-10-09T00:04:02.015Z,4.30
2022-10-09T00:06:35.856Z,3.70
2022-10-09T00:09:05.129Z,3.40
2022-10-09T00:11:34.458Z,3.70
2022-10-09T00:14:03.592Z,4.10
2022-10-09T00:16:32.633Z,3.60
2022-10-09T00:19:01.923Z,3.60
2022-10-09T00:21:34.615Z,3.60
2022-10-09T00:24:04.674Z,3.40
2022-10-09T00:26:33.628Z,3.60
2022-10-09T00:29:02.526Z,4.10
2022-10-09T00:31:30.950Z,3.70
2022-10-09T00:33:59.367Z,4.10
2022-10-09T00:36:28.135Z,4.00
2022-10-09T00:38:57.197Z,3.70
2022-10-09T00:41:29.493Z,3.30
2022-10-09T00:44:01.962Z,4.00
2022-10-09T00:46:48.707Z,4.60
2022-10-09T00:49:31.792Z,3.60
2022-10-09T00:52:07.526Z,4.10
2022-10-09T00:54:38.579Z,4.40
2022-10-09T00:57:08.795Z,4.10
2022-10-09T00:59:37.919Z,4.30
2022-10-09T01:02:07.010Z,3.90
2022-10-09T01:04:35.458Z,4.10
2022-10-09T01:07:15.446Z,4.10
2022-10-09T01:09:54.450Z,3.00
2022-10-09T01:12:50.939Z,3.40
2022-10-09T01:15:54.598Z,3.90
2022-10-09T01:18:44.041Z,4.20
2022-10-09T01:21:21.772Z,3.90
2022-10-09T01:24:22.182Z,4.20
2022-10-09T01:27:08.847Z,4.10
2022-10-09T01:29:50.271Z,3.80
2022-10-09T01:32:25.163Z,3.90
2022-10-09T01:34:54.515Z,3.20
2022-10-09T01:37:24.006Z,4.00
2022-10-09T01:39:53.655Z,4.80
2022-10-09T01:42:25.086Z,4.30
2022-10-09T01:44:53.360Z,3.50
2022-10-09T01:47:22.814Z,3.60
2022-10-09T01:50:33.847Z,3.80
2022-10-09T01:53:10.276Z,3.30
2022-10-09T01:56:02.555Z,4.10
2022-10-09T01:58:45.308Z,4.10
2022-10-09T02:01:33.410Z,4.80
2022-10-09T02:04:06.079Z,4.50
2022-10-09T02:06:36.020Z,4.40
2022-10-09T02:09:09.887Z,4.40
2022-10-09T02:11:41.113Z,3.30
2022-10-09T02:14:09.861Z,4.00
2022-10-09T02:16:45.434Z,4.40
2022-10-09T02:19:26.833Z,4.20
2022-10-09T02:22:01.867Z,3.90
2022-10-09T02:24:30.894Z,4.20
2022-10-09T02:26:59.840Z,4.30
2022-10-09T02:29:29.065Z,3.40
2022-10-09T02:31:57.278Z,3.40
2022-10-09T02:34:25.559Z,3.70
2022-10-09T02:36:53.849Z,4.00
2022-10-09T02:39:22.175Z,3.70
2022-10-09T02:41:50.500Z,3.60
2022-10-09T02:44:18.920Z,2.70
2022-10-09T02:46:47.331Z,3.80
2022-10-09T02:49:15.564Z,3.60
2022-10-09T02:51:43.834Z,3.60
2022-10-09T02:54:12.247Z,2.90
2022-10-09T02:56:40.545Z,3.30
2022-10-09T02:59:08.771Z,3.80
2022-10-09T03:01:37.059Z,3.00
2022-10-09T03:04:05.433Z,3.30
2022-10-09T03:06:34.419Z,3.10
2022-10-09T03:09:04.449Z,3.20
2022-10-09T03:11:32.681Z,3.60
2022-10-09T03:14:00.906Z,3.10
2022-10-09T03:16:29.183Z,3.50
2022-10-09T03:18:58.669Z,3.60
2022-10-09T03:21:28.279Z,3.60
2022-10-09T03:23:56.944Z,3.00
2022-10-09T03:26:27.790Z,2.90
2022-10-09T03:28:56.214Z,3.20
2022-10-09T03:31:50.497Z,3.40
2022-10-09T03:34:15.122Z,2.90
2022-10-09T03:36:43.602Z,3.60
2022-10-09T03:39:11.906Z,3.60
2022-10-09T03:41:40.180Z,3.60
2022-10-09T03:44:08.464Z,3.40
2022-10-09T03:46:36.767Z,4.50
2022-10-09T03:49:05.140Z,3.40
2022-10-09T03:51:33.478Z,3.30
2022-10-09T03:54:04.392Z,4.00
2022-10-09T03:56:32.613Z,3.10
2022-10-09T03:59:00.973Z,3.20
2022-10-09T04:01:29.321Z,3.30
2022-10-09T04:03:57.638Z,3.70
2022-10-09T04:06:25.945Z,3.00
2022-10-09T04:08:54.351Z,2.70
2022-10-09T04:11:23.244Z,3.00
2022-10-09T04:13:51.457Z,2.40
2022-10-09T04:16:19.837Z,2.70
2022-10-09T04:18:49.048Z,2.30
2022-10-09T04:21:17.316Z,3.00
2022-10-09T04:23:45.530Z,2.90
2022-10-09T04:26:14.143Z,3.80
2022-10-09T04:28:42.645Z,2.90
2022-10-09T04:31:11.063Z,2.70
2022-10-09T04:33:39.493Z,2.80
2022-10-09T04:36:07.988Z,2.70
2022-10-09T04:38:36.241Z,2.60
2022-10-09T04:41:06.563Z,3.30
2022-10-09T04:43:37.021Z,3.50
2022-10-09T04:46:07.912Z,3.30
2022-10-09T04:48:42.278Z,4.20
2022-10-09T04:51:11.564Z,4.00
2022-10-09T04:53:41.008Z,3.30
2022-10-09T04:56:13.473Z,3.60
2022-10-09T04:58:42.663Z,3.50
2022-10-09T05:01:22.198Z,3.10
2022-10-09T05:03:51.955Z,3.30
2022-10-09T05:06:22.389Z,3.70
2022-10-09T05:08:54.237Z,3.70
2022-10-09T05:11:25.597Z,4.00
2022-10-09T05:13:57.396Z,3.70
2022-10-09T05:16:29.194Z,3.80
2022-10-09T05:19:00.282Z,3.40
2022-10-09T05:21:29.487Z,3.20
2022-10-09T05:23:57.836Z,3.40
2022-10-09T05:26:27.305Z,3.80
2022-10-09T05:28:55.545Z,3.10
2022-10-09T05:31:28.248Z,3.40
2022-10-09T05:34:01.835Z,3.90
2022-10-09T05:36:30.562Z,3.40
2022-10-09T05:39:01.115Z,3.90
2022-10-09T05:41:29.860Z,3.30
2022-10-09T05:44:02.472Z,3.70
2022-10-09T05:46:31.255Z,3.70
2022-10-09T05:49:06.810Z,3.40
2022-10-09T05:51:40.068Z,3.20
2022-10-09T05:54:14.394Z,3.00
2022-10-09T05:56:44.559Z,3.80
2022-10-09T05:59:19.887Z,2.90
2022-10-09T06:04:23.106Z,2.90
2022-10-09T06:06:51.999Z,2.80
2022-10-09T06:09:25.546Z,2.90
2022-10-09T06:11:55.195Z,2.50
2022-10-09T06:14:25.130Z,2.80
2022-10-09T06:16:53.691Z,2.60
2022-10-09T06:19:23.054Z,2.70
2022-10-09T06:21:52.105Z,3.10
2022-10-09T06:24:29.209Z,3.50
2022-10-09T06:26:58.540Z,3.10
2022-10-09T06:29:27.261Z,2.70
2022-10-09T06:31:55.804Z,3.60
2022-10-09T06:34:24.477Z,2.30
2022-10-09T06:36:53.102Z,2.70
2022-10-09T06:39:22.633Z,3.50
2022-10-09T06:41:50.818Z,2.80
2022-10-09T06:44:19.242Z,3.60
2022-10-09T06:46:50.046Z,2.70
2022-10-09T06:49:18.382Z,3.30
2022-10-09T06:51:46.812Z,3.30
2022-10-09T06:54:17.489Z,3.50
2022-10-09T06:56:45.951Z,2.60
2022-10-09T06:59:14.188Z,2.70
2022-10-09T07:01:42.479Z,3.10
2022-10-09T07:04:14.666Z,3.40
2022-10-09T07:06:46.883Z,2.90
2022-10-09T07:09:16.425Z,2.50
2022-10-09T07:11:49.249Z,3.80
2022-10-09T07:14:34.436Z,2.70
2022-10-09T07:17:03.556Z,2.90
2022-10-09T07:19:31.867Z,3.40
2022-10-09T07:22:00.096Z,3.40
2022-10-09T07:24:28.571Z,3.10
2022-10-09T07:26:57.617Z,2.70
2022-10-09T07:29:26.115Z,2.40
2022-10-09T07:32:22.562Z,2.90
2022-10-09T07:34:50.846Z,2.60
2022-10-09T07:37:19.092Z,2.10
2022-10-09T07:39:47.409Z,2.80
2022-10-09T07:42:15.626Z,3.10
2022-10-09T07:44:43.891Z,2.90
2022-10-09T07:47:12.133Z,2.90
2022-10-09T07:49:40.367Z,2.60
2022-10-09T07:52:08.637Z,3.10
2022-10-09T07:54:36.862Z,2.30
2022-10-09T07:57:05.277Z,2.70
2022-10-09T07:59:33.668Z,2.70
2022-10-09T08:02:01.995Z,2.90
2022-10-09T08:04:30.341Z,2.00
2022-10-09T08:06:59.905Z,3.40
2022-10-09T08:09:44.072Z,2.60
2022-10-09T08:12:12.728Z,2.30
2022-10-09T08:17:32.736Z,2.30
2022-10-09T08:20:01.001Z,2.40
2022-10-09T08:22:33.546Z,2.10
2022-10-09T08:25:01.818Z,3.30
2022-10-09T08:27:29.993Z,2.50
2022-10-09T08:29:58.221Z,2.90
2022-10-09T08:32:26.498Z,3.10
2022-10-09T08:35:24.838Z,1.80
2022-10-09T08:38:25.346Z,2.00
2022-10-09T08:41:40.812Z,2.10
2022-10-09T08:44:33.397Z,2.60
2022-10-09T08:47:27.197Z,3.20
2022-10-09T08:50:00.159Z,2.00
2022-10-09T08:52:37.587Z,2.00
2022-10-09T08:55:22.681Z,1.90
2022-10-09T08:57:54.989Z,1.70
2022-10-09T09:00:28.132Z,2.10
2022-10-09T09:03:31.883Z,2.40
2022-10-09T09:06:23.769Z,2.90
2022-10-09T09:09:13.735Z,2.10
2022-10-09T09:12:00.455Z,2.10
2022-10-09T09:14:42.965Z,2.90
2022-10-09T09:17:53.820Z,2.20
2022-10-09T09:21:05.589Z,2.20
2022-10-09T09:23:42.697Z,1.80
2022-10-09T09:26:20.396Z,1.70
2022-10-09T09:28:55.592Z,1.40
2022-10-09T09:31:31.518Z,2.10
2022-10-09T09:34:09.507Z,2.30
2022-10-09T09:36:57.095Z,1.80
2022-10-09T09:42:20.775Z,2.10
2022-10-09T09:45:00.446Z,2.20
2022-10-09T09:47:44.524Z,2.40
2022-10-09T09:50:34.935Z,2.50
2022-10-09T09:53:07.165Z,1.90
2022-10-09T09:55:36.094Z,1.50
2022-10-09T09:58:15.587Z,2.00
2022-10-09T10:00:58.753Z,2.80
2022-10-09T10:03:27.952Z,2.00
2022-10-09T10:05:56.861Z,2.50
2022-10-09T10:08:30.511Z,2.30
2022-10-09T10:11:07.019Z,1.50
2022-10-09T10:13:49.058Z,1.60
2022-10-09T10:16:27.631Z,2.20
2022-10-09T10:18:58.255Z,1.80
2022-10-09T10:21:26.697Z,1.50
2022-10-09T10:24:10.060Z,1.70
2022-10-09T10:26:46.747Z,1.70
2022-10-09T10:29:34.197Z,1.80
2022-10-09T10:32:25.769Z,1.60
2022-10-09T10:35:11.990Z,1.90
2022-10-09T10:38:13.121Z,1.40
2022-10-09T10:40:58.787Z,1.50
2022-10-09T10:43:48.346Z,1.30
2022-10-09T10:46:53.063Z,1.10
2022-10-09T10:49:23.145Z,1.60
2022-10-09T10:52:19.502Z,1.20
2022-10-09T10:57:39.802Z,1.40
2022-10-09T11:00:11.501Z,1.30
2022-10-09T11:03:34.530Z,1.70
2022-10-09T11:06:45.272Z,1.10
2022-10-09T11:09:34.694Z,1.10
2022-10-09T11:12:24.607Z,1.60
2022-10-09T11:15:37.875Z,1.30
2022-10-09T11:18:40.881Z,1.10
2022-10-09T11:21:34.498Z,1.40
2022-10-09T11:24:43.385Z,1.10
2022-10-09T11:27:20.729Z,1.10
2022-10-09T11:30:11.635Z,1.00
2022-10-09T11:33:10.887Z,1.40
2022-10-09T11:35:56.322Z,1.10
2022-10-09T11:38:52.046Z,1.80
2022-10-09T11:44:09.464Z,1.40
2022-10-09T11:47:01.771Z,1.30
2022-10-09T11:50:19.095Z,2.00
2022-10-09T11:53:09.213Z,2.10
2022-10-09T11:55:37.911Z,5.00
2022-10-09T11:58:21.836Z,1.90
2022-10-09T12:00:54.529Z,1.00
2022-10-09T12:03:34.559Z,2.60
2022-10-09T12:06:17.716Z,1.40
2022-10-09T12:09:08.376Z,1.40
2022-10-09T12:11:36.645Z,1.90
2022-10-09T12:14:08.708Z,3.10
2022-10-09T12:16:46.807Z,1.90
2022-10-09T12:19:24.213Z,3.10
2022-10-09T12:22:04.882Z,2.30
2022-10-09T12:24:46.539Z,2.20
2022-10-09T12:27:28.313Z,1.10
2022-10-09T12:30:21.709Z,1.00
2022-10-09T12:32:58.936Z,1.10
2022-10-09T12:35:39.462Z,1.40
2022-10-09T12:38:31.297Z,1.70
2022-10-09T12:41:11.639Z,1.20
2022-10-09T12:43:45.507Z,1.20
2022-10-09T12:46:13.842Z,1.70
2022-10-09T12:48:45.876Z,1.50
2022-10-09T12:51:17.675Z,0.90
2022-10-09T12:53:50.896Z,1.30
2022-10-09T12:56:33.628Z,1.70
2022-10-09T12:59:03.040Z,1.20
2022-10-09T13:01:33.012Z,1.20
2022-10-09T13:04:05.317Z,2.90
2022-10-09T13:06:52.880Z,1.60
2022-10-09T13:09:34.976Z,1.20
2022-10-09T13:12:26.741Z,1.80
2022-10-09T13:15:07.925Z,1.90
2022-10-09T13:17:41.893Z,1.40
2022-10-09T13:20:16.624Z,1.40
2022-10-09T13:23:06.522Z,1.70
2022-10-09T13:25:40.908Z,0.90
2022-10-09T13:28:20.236Z,1.60
2022-10-09T13:30:48.725Z,1.20
2022-10-09T13:33:17.495Z,1.40
2022-10-09T13:35:46.549Z,0.80
2022-10-09T13:38:17.870Z,1.30
2022-10-09T13:40:46.616Z,1.00
2022-10-09T13:43:26.038Z,1.00
2022-10-09T13:45:54.463Z,1.40
2022-10-09T13:48:23.680Z,1.00
2022-10-09T13:50:52.403Z,1.40
2022-10-09T13:53:20.778Z,1.40
2022-10-09T13:55:48.999Z,1.40
2022-10-09T13:58:17.238Z,1.60
2022-10-09T14:00:45.618Z,1.30
2022-10-09T14:03:14.093Z,1.10
2022-10-09T14:05:44.260Z,1.30
2022-10-09T14:08:12.669Z,1.40
2022-10-09T14:10:43.977Z,0.90
2022-10-09T14:13:14.550Z,1.00
2022-10-09T14:15:42.854Z,1.00
2022-10-09T14:18:11.166Z,1.50
2022-10-09T14:20:39.456Z,1.30
2022-10-09T14:23:07.789Z,0.90
2022-10-09T14:25:36.580Z,1.60
2022-10-09T14:28:05.020Z,1.20
2022-10-09T14:30:33.549Z,1.20
2022-10-09T14:33:01.854Z,1.80
2022-10-09T14:35:30.585Z,1.00
2022-10-09T14:37:59.049Z,0.80
2022-10-09T14:40:27.648Z,1.20
2022-10-09T14:42:55.894Z,1.10
2022-10-09T14:45:24.228Z,1.50
2022-10-09T14:47:52.495Z,1.10
2022-10-09T14:50:20.791Z,1.40
2022-10-09T14:52:49.322Z,0.90
2022-10-09T14:55:17.894Z,1.40
2022-10-09T14:57:46.290Z,1.20
2022-10-09T15:00:15.116Z,1.00
2022-10-09T15:05:16.556Z,1.50
2022-10-09T15:07:44.848Z,1.00
2022-10-09T15:10:14.818Z,1.40
2022-10-09T15:12:43.071Z,1.10
2022-10-09T15:15:11.408Z,1.80
2022-10-09T15:17:40.005Z,2.00
2022-10-09T15:20:08.869Z,1.30
2022-10-09T15:22:37.167Z,1.50
2022-10-09T15:25:06.025Z,1.80
2022-10-09T15:27:34.365Z,1.40
2022-10-09T15:30:03.277Z,1.50
2022-10-09T15:32:31.548Z,1.20
2022-10-09T15:34:59.856Z,1.30
2022-10-09T15:37:28.125Z,1.70
2022-10-09T15:39:56.765Z,1.90
2022-10-09T15:42:25.069Z,1.40
2022-10-09T15:44:53.337Z,1.30
2022-10-09T15:47:39.259Z,1.10
2022-10-09T15:50:10.607Z,1.30
2022-10-09T15:52:38.879Z,1.60
2022-10-09T15:55:07.900Z,1.60
2022-10-09T15:57:36.147Z,1.70
2022-10-09T16:00:05.157Z,1.70
2022-10-09T16:02:33.419Z,2.00
2022-10-09T16:05:02.985Z,1.40
2022-10-09T16:07:31.295Z,1.40
2022-10-09T16:09:59.547Z,2.80
2022-10-09T16:12:28.591Z,2.00
2022-10-09T16:14:56.846Z,1.80
2022-10-09T16:17:25.103Z,1.40
2022-10-09T16:19:53.424Z,1.60
2022-10-09T16:22:21.938Z,1.70
2022-10-09T16:24:50.232Z,1.40
2022-10-09T16:27:18.471Z,1.70
2022-10-09T16:29:46.912Z,1.90
2022-10-09T16:32:15.179Z,2.70
2022-10-09T16:34:43.538Z,1.50
2022-10-09T16:37:11.834Z,1.50
2022-10-09T16:39:40.340Z,2.10
2022-10-09T16:42:08.659Z,1.70
2022-10-09T16:44:36.965Z,2.00
2022-10-09T16:47:05.311Z,3.10
2022-10-09T16:49:33.925Z,2.40
2022-10-09T16:52:02.243Z,1.60
2022-10-09T16:54:30.606Z,1.20
2022-10-09T16:56:59.040Z,1.60
2022-10-09T16:59:27.761Z,1.40
2022-10-09T17:01:57.265Z,4.10
2022-10-09T17:04:26.322Z,6.00
2022-10-09T17:06:54.669Z,12.70
2022-10-09T17:09:23.157Z,10.70
2022-10-09T17:11:51.436Z,11.90
2022-10-09T17:14:19.780Z,10.40
2022-10-09T17:16:48.282Z,12.30
2022-10-09T17:19:16.746Z,7.50
2022-10-09T17:21:45.096Z,7.70
2022-10-09T17:24:15.226Z,4.30
2022-10-09T17:30:26.915Z,4.50
2022-10-09T17:32:55.157Z,4.30
2022-10-09T17:35:24.185Z,4.30
2022-10-09T17:37:59.323Z,7.30
2022-10-09T17:40:45.936Z,8.10
2022-10-09T17:43:14.171Z,6.60
2022-10-09T17:45:43.137Z,6.40
2022-10-09T17:48:11.523Z,7.20
2022-10-09T17:50:39.734Z,7.70
2022-10-09T17:53:07.939Z,4.80
2022-10-09T17:55:38.595Z,3.40
2022-10-09T17:58:06.815Z,3.50
2022-10-09T18:00:38.451Z,3.10
2022-10-09T18:03:07.189Z,2.60
2022-10-09T18:05:53.399Z,2.60
2022-10-09T18:08:22.435Z,4.00
2022-10-09T18:11:00.080Z,3.30
2022-10-09T18:13:29.396Z,3.30
2022-10-09T18:15:57.919Z,9.00
2022-10-09T18:18:26.167Z,3.60
2022-10-09T18:20:54.362Z,3.50
2022-10-09T18:23:22.931Z,2.60
2022-10-09T18:25:51.256Z,4.70
2022-10-09T18:28:19.717Z,4.70
2022-10-09T18:30:48.057Z,9.00
2022-10-09T18:33:16.396Z,8.70
2022-10-09T18:35:45.106Z,8.60
2022-10-09T18:38:13.366Z,17.90
2022-10-09T18:40:45.804Z,9.20
2022-10-09T18:43:14.337Z,6.40
2022-10-09T18:45:46.525Z,8.90
2022-10-09T18:48:16.631Z,8.80
2022-10-09T18:50:45.053Z,8.90
2022-10-09T18:53:13.535Z,7.70
2022-10-09T18:55:43.832Z,9.00
2022-10-09T18:58:12.700Z,8.30
2022-10-09T19:00:43.406Z,8.80
2022-10-09T19:03:11.659Z,7.80
2022-10-09T19:05:40.116Z,7.80
2022-10-09T19:08:08.582Z,8.20
2022-10-09T19:10:37.036Z,10.90
2022-10-09T19:13:05.467Z,6.90
2022-10-09T19:15:34.019Z,6.60
2022-10-09T19:18:02.292Z,6.90
2022-10-09T19:20:31.545Z,8.50
2022-10-09T19:22:59.806Z,9.50
2022-10-09T19:25:28.216Z,8.20
2022-10-09T19:27:56.461Z,9.20
2022-10-09T19:30:24.782Z,8.50
2022-10-09T19:32:53.254Z,7.60
2022-10-09T19:35:21.622Z,7.60
2022-10-09T19:38:16.172Z,7.80
2022-10-09T19:40:46.533Z,8.40
2022-10-09T19:43:21.530Z,9.60
2022-10-09T19:46:12.894Z,7.70
2022-10-09T19:48:41.372Z,5.80
2022-10-09T19:51:15.423Z,6.60
2022-10-09T19:53:43.712Z,5.80
2022-10-09T19:56:18.391Z,7.50
2022-10-09T19:58:49.265Z,8.10
2022-10-09T20:01:21.391Z,8.90
2022-10-09T20:03:56.322Z,8.70
2022-10-09T20:06:26.102Z,6.80
2022-10-09T20:08:54.607Z,9.50
2022-10-09T20:11:23.660Z,9.90
2022-10-09T20:13:55.716Z,8.90
2022-10-09T20:16:32.067Z,9.80
2022-10-09T20:19:02.552Z,8.30
2022-10-09T20:21:33.742Z,8.10
2022-10-09T20:24:02.550Z,8.60
2022-10-09T20:27:10.405Z,7.30
2022-10-09T20:29:39.455Z,7.20
2022-10-09T20:32:08.019Z,9.30
2022-10-09T20:34:36.365Z,8.30
2022-10-09T20:37:04.671Z,8.20
2022-10-09T20:42:27.311Z,8.10
2022-10-09T20:44:55.636Z,8.60
2022-10-09T20:47:50.283Z,7.60
2022-10-09T20:50:18.683Z,7.40
2022-10-09T20:52:47.055Z,8.60
2022-10-09T20:55:15.346Z,8.60
2022-10-09T20:57:43.614Z,8.70
2022-10-09T21:00:12.656Z,9.30
2022-10-09T21:02:40.884Z,8.80
2022-10-09T21:05:09.390Z,8.90
2022-10-09T21:07:37.891Z,9.00
2022-10-09T21:10:07.091Z,8.80
2022-10-09T21:12:35.541Z,9.40
2022-10-09T21:15:05.404Z,8.40
2022-10-09T21:17:33.798Z,8.80
2022-10-09T21:20:02.004Z,8.60
2022-10-09T21:22:30.311Z,6.60
2022-10-09T21:24:58.595Z,8.30
2022-10-09T21:27:26.814Z,6.70
2022-10-09T21:29:55.018Z,7.30
2022-10-09T21:32:23.313Z,8.00
2022-10-09T21:34:51.583Z,8.30
2022-10-09T21:37:21.848Z,8.30
2022-10-09T21:39:50.675Z,7.00
2022-10-09T21:42:18.865Z,7.50
2022-10-09T21:44:47.079Z,6.90
2022-10-09T21:47:20.774Z,8.60
2022-10-09T21:49:48.965Z,6.80
2022-10-09T21:52:18.613Z,5.90
2022-10-09T21:54:51.963Z,6.80
2022-10-09T21:57:20.244Z,6.60
2022-10-09T21:59:48.462Z,6.50
2022-10-09T22:02:16.731Z,6.80
2022-10-09T22:04:44.956Z,6.90
2022-10-09T22:07:13.131Z,5.30
2022-10-09T22:09:41.348Z,7.20
2022-10-09T22:12:09.564Z,7.10
2022-10-09T22:14:49.346Z,6.90
2022-10-09T22:17:40.102Z,6.40
2022-10-09T22:20:09.879Z,5.70
2022-10-09T22:22:38.078Z,6.40
2022-10-09T22:25:07.506Z,5.40
2022-10-09T22:27:36.468Z,5.30
2022-10-09T22:30:05.720Z,5.80
2022-10-09T22:32:34.009Z,5.50
2022-10-09T22:35:02.202Z,6.50
2022-10-09T22:37:30.513Z,5.60
2022-10-09T22:39:58.735Z,5.90
2022-10-09T22:42:26.967Z,6.50
2022-10-09T22:44:55.304Z,6.40
2022-10-09T22:47:23.563Z,6.70
2022-10-09T22:49:51.830Z,6.70
2022-10-09T22:52:20.060Z,6.80
2022-10-09T22:54:48.319Z,6.30
2022-10-09T22:57:17.230Z,7.10
2022-10-09T22:59:45.867Z,7.90
2022-10-09T23:05:09.727Z,7.10
2022-10-09T23:07:38.050Z,7.00
2022-10-09T23:10:06.519Z,7.50
2022-10-09T23:12:34.869Z,5.70
2022-10-09T23:15:03.407Z,5.60
2022-10-09T23:17:31.699Z,5.10
2022-10-09T23:20:00.047Z,6.70
2022-10-09T23:22:28.412Z,6.60
2022-10-09T23:24:56.776Z,5.00
2022-10-09T23:27:24.967Z,6.20
2022-10-09T23:33:08.792Z,6.10
2022-10-09T23:35:43.372Z,6.10
2022-10-09T23:38:11.588Z,7.90
2022-10-09T23:40:39.857Z,6.60
2022-10-09T23:43:08.054Z,6.30
2022-10-09T23:45:40.797Z,5.00
2022-10-09T23:48:09.056Z,7.00
2022-10-09T23:50:37.280Z,6.30
2022-10-09T23:53:05.974Z,6.50
2022-10-09T23:55:34.215Z,6.80
2022-10-09T23:58:02.420Z,6.60
